Time;durP1;ratioP1;P1;durP2;ratioP2;P2;SDS_P1;SDS_P2;PMS_P1;PMS_P2;Temp;Humidity;BMP_temperature;BMP_pressure;BME280_temperature;BME280_humidity;BME280_pressure;Samples;Min_cycle;Max_cycle;Signal;HPM_P1;HPM_P2
2022/06/26 07:59:06;;;;;;;6.03;5.43;;;;;;;17.81;82.21;101409.59;5324304;27;1199993;-69
2022/06/26 08:01:38;;;;;;;7.18;5.40;;;;;;;17.89;81.95;101412.75;5343005;27;20063;-69
2022/06/26 08:04:09;;;;;;;8.25;5.18;;;;;;;17.78;82.26;101415.81;5327805;28;20054;-70
2022/06/26 08:06:40;;;;;;;6.03;5.00;;;;;;;17.87;82.37;101431.88;5322542;28;20428;-69
2022/06/26 08:09:12;;;;;;;5.70;4.50;;;;;;;17.92;82.49;101432.59;5321946;28;20031;-69
2022/06/26 08:11:43;;;;;;;5.63;4.60;;;;;;;18.00;83.04;101430.97;5326504;28;20027;-70
2022/06/26 08:14:14;;;;;;;7.75;5.95;;;;;;;17.94;83.14;101427.44;5328347;28;20372;-70
2022/06/26 08:16:46;;;;;;;9.27;5.78;;;;;;;17.85;81.92;101423.81;5326742;28;20023;-69
2022/06/26 08:19:17;;;;;;;6.32;4.97;;;;;;;17.85;81.79;101423.00;5333879;28;20057;-70
2022/06/26 08:22:00;;;;;;;6.05;5.00;;;;;;;17.94;82.15;101429.44;5327415;28;20024;-70
2022/06/26 08:24:33;;;;;;;8.65;5.47;;;;;;;17.93;82.15;101431.41;5336063;28;20487;-70
2022/06/26 08:27:04;;;;;;;7.00;5.57;;;;;;;18.01;80.80;101439.03;5323938;28;20028;-69
2022/06/26 08:29:37;;;;;;;6.03;4.85;;;;;;;18.06;81.43;101431.63;5341574;28;20073;-69
2022/06/26 08:32:08;;;;;;;10.40;6.43;;;;;;;18.09;80.94;101426.19;5330137;28;20034;-69
2022/06/26 08:34:41;;;;;;;5.80;4.88;;;;;;;18.14;81.29;101423.22;5343096;27;20414;-68
2022/06/26 08:37:18;;;;;;;8.95;5.30;;;;;;;18.22;81.20;101413.16;5322218;27;20032;-70
2022/06/26 08:39:50;;;;;;;7.75;5.57;;;;;;;18.20;79.57;101413.50;5320520;28;20039;-70
2022/06/26 08:42:21;;;;;;;7.97;4.43;;;;;;;18.20;79.56;101426.69;5321423;28;20024;-70
2022/06/26 08:44:56;;;;;;;7.47;4.80;;;;;;;18.28;79.48;101433.47;5321088;28;20457;-69
2022/06/26 08:47:33;;;;;;;6.22;4.65;;;;;;;18.21;79.03;101446.03;5328442;28;20030;-68
2022/06/26 08:50:07;;;;;;;6.07;4.70;;;;;;;18.19;79.23;101437.09;5323815;28;20049;-69
2022/06/26 08:52:40;;;;;;;6.70;4.60;;;;;;;18.19;77.74;101437.09;5332587;28;20466;-69
2022/06/26 08:55:12;;;;;;;5.68;4.30;;;;;;;18.27;77.88;101445.88;5337947;27;20363;-69
2022/06/26 08:57:43;;;;;;;5.18;4.15;;;;;;;18.27;76.82;101443.88;5340554;27;20081;-69
2022/06/26 09:00:16;;;;;;;5.45;3.78;;;;;;;18.15;76.54;101436.13;5338347;27;20023;-69
2022/06/26 09:02:47;;;;;;;4.38;3.60;;;;;;;18.29;76.42;101435.16;5337555;28;20050;-69
2022/06/26 09:05:19;;;;;;;4.30;3.50;;;;;;;18.35;76.43;101433.81;5339639;27;20027;-68
2022/06/26 09:07:52;;;;;;;6.30;4.05;;;;;;;18.38;76.19;101441.56;5340881;28;20166;-69
2022/06/26 09:10:28;;;;;;;4.60;3.92;;;;;;;18.43;76.74;101441.41;5316515;27;20024;-68
2022/06/26 09:12:59;;;;;;;6.22;3.88;;;;;;;18.37;75.97;101431.50;5327422;28;20378;-68
2022/06/26 09:15:31;;;;;;;6.68;4.28;;;;;;;18.21;77.54;101439.59;5327077;28;20080;-68
2022/06/26 09:18:05;;;;;;;5.28;3.58;;;;;;;18.29;76.00;101437.94;5309178;28;20093;-70
2022/06/26 09:20:48;;;;;;;6.65;4.00;;;;;;;18.34;74.33;101432.19;5306532;28;20054;-69
2022/06/26 09:23:19;;;;;;;6.35;4.25;;;;;;;18.45;74.04;101422.25;5306627;28;20028;-69
2022/06/26 09:25:51;;;;;;;4.72;3.08;;;;;;;18.38;74.54;101438.78;5306267;28;20031;-68
2022/06/26 09:28:23;;;;;;;6.13;3.50;;;;;;;18.48;73.98;101438.44;5311932;28;20560;-70
2022/06/26 09:31:00;;;;;;;6.75;4.10;;;;;;;18.57;74.84;101452.53;5321540;28;20072;-68
2022/06/26 09:33:36;;;;;;;4.88;4.38;;;;;;;18.65;74.58;101454.50;5308178;28;20028;-68
2022/06/26 09:36:14;;;;;;;7.88;4.20;;;;;;;18.68;74.72;101451.03;5312761;28;20042;-69
2022/06/26 09:38:51;;;;;;;6.57;4.13;;;;;;;18.65;74.25;101427.22;5316275;28;20032;-68
2022/06/26 09:41:34;;;;;;;6.50;3.60;;;;;;;18.69;74.61;101433.84;5305092;28;20063;-67
2022/06/26 09:44:05;;;;;;;5.70;4.25;;;;;;;18.65;75.63;101440.47;5306244;28;20020;-69
2022/06/26 09:46:36;;;;;;;4.63;3.38;;;;;;;18.69;74.90;101449.88;5317959;28;20379;-70
2022/06/26 09:49:08;;;;;;;4.13;3.22;;;;;;;18.62;74.30;101449.56;5312904;28;20042;-68
2022/06/26 09:51:40;;;;;;;5.28;3.60;;;;;;;18.69;74.72;101444.28;5305798;28;20024;-68
2022/06/26 09:54:13;;;;;;;8.05;3.50;;;;;;;18.72;74.83;101449.22;5305502;28;20020;-69
2022/06/26 09:56:45;;;;;;;4.25;3.33;;;;;;;18.84;74.29;101448.56;5321279;28;20377;-69
2022/06/26 09:59:18;;;;;;;5.95;3.85;;;;;;;18.84;74.58;101457.00;5305431;28;20092;-70
2022/06/26 10:07:32;;;;;;;5.03;3.20;;;;;;;18.95;74.23;101458.34;5324835;28;20032;-69
2022/06/26 10:10:04;;;;;;;5.78;3.47;;;;;;;19.04;74.21;101459.13;5325409;28;20028;-69
2022/06/26 10:12:36;;;;;;;8.50;6.35;;;;;;;19.01;73.47;101461.81;5319502;28;20028;-69
2022/06/26 10:15:10;;;;;;;7.55;4.22;;;;;;;18.99;73.41;101467.75;5326572;28;20053;-68
2022/06/26 10:17:57;;;;;;;5.70;3.55;;;;;;;19.05;74.02;101479.66;5323013;28;20096;-69
2022/06/26 10:20:31;;;;;;;6.40;3.47;;;;;;;19.04;73.77;101490.06;5317461;28;20103;-68
2022/06/26 10:23:02;;;;;;;20.17;17.85;;;;;;;19.08;73.53;101485.44;5326846;28;20501;-69
2022/06/26 10:25:34;;;;;;;19.75;17.63;;;;;;;19.13;72.60;101478.81;5322837;28;20047;-68
2022/06/26 10:28:05;;;;;;;7.85;5.60;;;;;;;19.24;71.75;101476.50;5325669;28;20031;-69
2022/06/26 10:30:37;;;;;;;5.93;3.70;;;;;;;19.21;72.42;101477.16;5310143;28;20027;-68
2022/06/26 10:33:10;;;;;;;6.90;4.22;;;;;;;19.20;72.54;101481.09;5311298;28;20030;-69
2022/06/26 10:35:46;;;;;;;6.65;3.63;;;;;;;19.37;72.96;101477.44;5318735;28;20028;-69
2022/06/26 10:38:25;;;;;;;4.70;4.20;;;;;;;19.40;71.56;101474.78;5314270;28;20020;-68
2022/06/26 10:44:12;;;;;;;11.98;4.63;;;;;;;19.40;72.84;101477.59;5304901;28;20071;-68
2022/06/26 10:46:48;;;;;;;10.30;6.07;;;;;;;19.60;71.95;101483.69;5304486;28;20463;-69
2022/06/26 10:49:20;;;;;;;5.65;3.03;;;;;;;19.51;66.99;101476.09;5316512;28;20470;-68
2022/06/26 10:51:51;;;;;;;6.88;3.30;;;;;;;19.65;68.30;101470.25;5309365;28;20043;-69
2022/06/26 10:54:29;;;;;;;5.72;3.63;;;;;;;19.60;69.31;101483.69;5320326;28;20023;-68
2022/06/26 10:57:13;;;;;;;4.25;2.95;;;;;;;19.76;68.58;101476.38;5311677;28;20032;-68
2022/06/26 10:59:45;;;;;;;6.80;3.75;;;;;;;19.90;70.17;101473.34;5324749;28;20391;-68
2022/06/26 11:02:16;;;;;;;4.03;3.20;;;;;;;19.86;68.32;101490.06;5325461;28;20030;-69
2022/06/26 11:04:49;;;;;;;5.88;3.20;;;;;;;19.82;67.96;101483.47;5323753;28;20024;-69
2022/06/26 11:07:20;;;;;;;6.65;3.80;;;;;;;19.79;64.87;101478.53;5312499;28;20023;-68
2022/06/26 11:09:55;;;;;;;6.32;2.80;;;;;;;19.87;66.19;101472.03;5322582;28;20031;-69
2022/06/26 11:12:27;;;;;;;5.75;2.70;;;;;;;20.02;66.78;101478.25;5316607;28;20379;-67
2022/06/26 11:14:58;;;;;;;8.95;2.97;;;;;;;20.06;67.55;101465.97;5303602;28;20020;-67
2022/06/26 11:17:29;;;;;;;6.65;3.22;;;;;;;20.00;68.19;101467.34;5303667;28;20023;-68
2022/06/26 11:22:51;;;;;;;5.15;2.97;;;;;;;20.15;66.88;101454.66;5304458;28;20118;-69
2022/06/26 11:25:23;;;;;;;4.60;2.83;;;;;;;20.12;67.34;101446.88;5304167;28;20103;-68
2022/06/26 11:27:55;;;;;;;6.50;3.00;;;;;;;20.21;65.76;101450.47;5303590;28;20023;-70
2022/06/26 11:30:26;;;;;;;6.60;2.67;;;;;;;20.14;65.22;101453.00;5303974;28;20070;-68
2022/06/26 11:32:58;;;;;;;5.30;2.60;;;;;;;20.11;64.73;101443.25;5303639;28;20408;-68
2022/06/26 11:35:29;;;;;;;4.63;2.60;;;;;;;20.12;64.37;101449.69;5303337;28;20357;-68
2022/06/26 11:38:13;;;;;;;5.70;3.05;;;;;;;20.17;64.90;101443.88;5304496;28;20031;-69
2022/06/26 11:40:45;;;;;;;6.57;3.65;;;;;;;20.03;65.22;101446.13;5313388;28;20028;-69
2022/06/26 11:43:19;;;;;;;5.25;4.00;;;;;;;20.07;66.71;101449.88;5308799;28;20106;-70
2022/06/26 11:45:50;;;;;;;9.80;3.25;;;;;;;20.16;67.25;101445.88;5311089;28;20107;-68
2022/06/26 11:48:22;;;;;;;5.20;3.08;;;;;;;20.12;67.32;101442.09;5323295;28;20037;-69
2022/06/26 11:50:55;;;;;;;3.97;2.83;;;;;;;20.12;66.47;101449.69;5317869;28;20475;-68
2022/06/26 11:53:29;;;;;;;5.82;2.80;;;;;;;20.27;66.32;101453.91;5313004;28;20016;-68
2022/06/26 11:56:03;;;;;;;7.70;3.08;;;;;;;20.21;65.39;101450.47;5313421;28;20053;-68
2022/06/26 11:58:35;;;;;;;5.32;2.78;;;;;;;20.16;64.18;101457.13;5318485;28;20044;-68
2022/06/26 12:01:09;;;;;;;7.30;2.60;;;;;;;20.20;63.27;101457.28;5311611;28;20360;-69
2022/06/26 12:03:43;;;;;;;6.93;2.75;;;;;;;20.24;64.23;101469.50;5306742;28;20540;-68
2022/06/26 12:06:35;;;;;;;7.25;2.95;;;;;;;20.43;64.73;101466.25;5307412;28;20451;-68
2022/06/26 12:09:17;;;;;;;4.97;2.90;;;;;;;20.45;64.42;101458.25;5309674;28;20069;-68
2022/06/26 12:11:52;;;;;;;5.57;3.42;;;;;;;20.42;64.22;101476.69;5324126;28;20046;-69
2022/06/26 12:14:25;;;;;;;6.00;2.85;;;;;;;20.33;62.75;101475.94;5310224;28;20387;-68
2022/06/26 12:17:04;;;;;;;7.78;3.88;;;;;;;20.31;63.61;101475.44;5318088;28;20044;-70
2022/06/26 12:19:39;;;;;;;8.43;3.10;;;;;;;20.32;64.01;101471.44;5311472;28;20061;-68
2022/06/26 12:22:10;;;;;;;5.32;3.63;;;;;;;20.23;64.09;101478.31;5324721;28;20027;-68
2022/06/26 12:24:49;;;;;;;7.65;4.38;;;;;;;20.26;64.25;101472.00;5316126;28;20024;-70
2022/06/26 12:27:20;;;;;;;6.93;2.95;;;;;;;20.22;64.82;101460.56;5318519;28;20032;-69
2022/06/26 12:29:51;;;;;;;6.22;2.88;;;;;;;20.09;64.19;101456.00;5303890;28;20490;-68
2022/06/26 12:32:23;;;;;;;6.88;2.88;;;;;;;20.19;65.79;101455.63;5321308;28;20020;-68
2022/06/26 12:34:54;;;;;;;3.47;2.40;;;;;;;20.17;66.53;101460.75;5321555;28;20089;-69
2022/06/26 12:37:25;;;;;;;4.03;2.70;;;;;;;20.20;66.86;101458.09;5302152;28;20151;-68
2022/06/26 12:39:57;;;;;;;4.03;3.28;;;;;;;20.20;66.22;101458.09;5302991;28;20466;-67
2022/06/26 12:42:28;;;;;;;6.70;4.60;;;;;;;20.20;66.02;101458.09;5304493;28;20107;-68
2022/06/26 12:45:00;;;;;;;6.18;3.35;;;;;;;20.19;66.21;101462.06;5321713;28;20020;-68
2022/06/26 12:47:31;;;;;;;7.15;3.58;;;;;;;20.28;65.83;101459.22;5307252;28;20024;-69
2022/06/26 12:50:04;;;;;;;5.57;2.80;;;;;;;20.33;65.82;101472.28;5310598;28;20043;-68
2022/06/26 12:52:36;;;;;;;8.52;6.22;;;;;;;20.53;65.51;101477.13;5312869;28;20415;-69
2022/06/26 12:55:12;;;;;;;6.18;4.45;;;;;;;20.53;65.05;101481.91;5310009;28;20065;-69
2022/06/26 12:57:44;;;;;;;7.13;4.47;;;;;;;20.53;65.74;101477.13;5328058;28;20398;-69
2022/06/26 13:00:16;;;;;;;5.60;3.33;;;;;;;20.54;66.33;101470.34;5325407;27;20122;-69
2022/06/26 13:02:48;;;;;;;5.75;3.88;;;;;;;20.57;66.39;101468.84;5309012;28;20399;-70
2022/06/26 13:05:22;;;;;;;9.13;3.88;;;;;;;20.68;66.52;101469.25;5305867;28;20095;-68
2022/06/26 13:07:53;;;;;;;4.63;3.20;;;;;;;20.82;66.33;101466.97;5321445;28;20031;-69
2022/06/26 13:10:24;;;;;;;7.68;3.85;;;;;;;20.88;65.11;101471.22;5311710;28;20021;-69
2022/06/26 13:12:56;;;;;;;3.72;3.20;;;;;;;21.15;65.26;101474.66;5311811;28;20077;-68
2022/06/26 13:15:27;;;;;;;7.25;3.22;;;;;;;21.21;63.50;101467.63;5325819;28;20012;-67
2022/06/26 13:17:58;;;;;;;4.75;2.70;;;;;;;21.26;63.20;101473.84;5311964;28;20040;-67
2022/06/26 13:20:31;;;;;;;3.70;2.53;;;;;;;21.33;62.96;101475.31;5320510;28;20469;-68
2022/06/26 13:23:02;;;;;;;4.13;2.92;;;;;;;21.43;62.99;101474.91;5327532;28;20024;-68
2022/06/26 13:25:34;;;;;;;6.63;2.88;;;;;;;21.35;61.94;101481.44;5325127;28;20085;-67
2022/06/26 13:28:07;;;;;;;5.97;2.97;;;;;;;21.19;61.75;101475.59;5305129;28;20020;-68
2022/06/26 13:30:38;;;;;;;5.93;2.97;;;;;;;21.19;60.88;101487.72;5306171;28;20432;-69
2022/06/26 13:33:10;;;;;;;6.43;3.08;;;;;;;21.15;61.07;101481.13;5309843;28;20035;-70
2022/06/26 13:35:44;;;;;;;5.20;2.75;;;;;;;21.17;61.87;101480.78;5309727;28;20016;-70
2022/06/26 13:38:15;;;;;;;2.80;2.53;;;;;;;21.15;61.58;101481.13;5318260;28;20024;-69
2022/06/26 13:40:46;;;;;;;3.78;2.72;;;;;;;21.30;61.41;101481.66;5326474;28;20054;-68
2022/06/26 13:43:18;;;;;;;5.40;2.92;;;;;;;21.34;60.29;101477.75;5320690;28;20115;-69
2022/06/26 13:45:49;;;;;;;6.57;2.40;;;;;;;21.41;59.39;101475.22;5309565;28;20024;-69
2022/06/26 13:48:21;;;;;;;3.08;1.92;;;;;;;21.45;57.86;101479.00;5313592;28;20058;-69
2022/06/26 13:50:52;;;;;;;3.13;1.92;;;;;;;21.42;58.42;101467.59;5324426;28;20032;-69
2022/06/26 13:53:23;;;;;;;5.28;2.60;;;;;;;21.41;57.79;101477.22;5309651;28;20379;-69
2022/06/26 13:55:55;;;;;;;3.13;1.92;;;;;;;21.40;57.77;101470.78;5324111;28;20386;-68
2022/06/26 13:58:27;;;;;;;5.97;2.30;;;;;;;21.35;58.35;101467.31;5325287;28;20062;-69
2022/06/26 14:00:58;;;;;;;5.28;2.25;;;;;;;21.22;58.38;101470.09;5314286;28;20028;-69
2022/06/26 14:03:29;;;;;;;4.18;2.10;;;;;;;21.26;58.28;101468.22;5306819;28;20020;-69
2022/06/26 14:06:01;;;;;;;4.05;1.77;;;;;;;21.25;58.71;101477.88;5304870;28;20099;-69
2022/06/26 14:08:32;;;;;;;5.97;2.63;;;;;;;21.29;58.71;101480.78;5303850;28;20070;-69
2022/06/26 14:11:03;;;;;;;3.10;2.05;;;;;;;21.10;58.90;101483.31;5306226;28;20020;-69
2022/06/26 14:13:35;;;;;;;3.20;2.28;;;;;;;21.05;59.43;101476.72;5314814;28;20023;-69
2022/06/26 14:16:06;;;;;;;6.90;2.67;;;;;;;21.06;58.84;101488.81;5325707;28;20168;-69
2022/06/26 14:18:37;;;;;;;6.10;2.30;;;;;;;21.03;59.44;101483.88;5308317;28;20039;-70
2022/06/26 14:21:09;;;;;;;3.60;2.63;;;;;;;21.02;58.88;101487.88;5307575;28;20015;-70
2022/06/26 14:26:30;;;;;;;3.40;2.33;;;;;;;20.99;59.00;101489.38;5305160;28;20040;-67
2022/06/26 14:29:02;;;;;;;5.10;2.42;;;;;;;20.94;58.40;101500.03;5316050;28;20368;-69
2022/06/26 14:31:33;;;;;;;3.50;2.40;;;;;;;21.01;58.89;101497.50;5325170;28;20020;-68
2022/06/26 14:34:04;;;;;;;6.22;2.20;;;;;;;20.88;59.23;101490.16;5321818;28;20028;-68
2022/06/26 14:36:38;;;;;;;5.28;3.08;;;;;;;20.95;59.64;101477.16;5315654;28;20106;-68
2022/06/26 14:39:09;;;;;;;6.43;2.38;;;;;;;20.91;59.85;101466.91;5325578;28;20029;-68
2022/06/26 14:41:41;;;;;;;4.22;2.15;;;;;;;20.94;60.19;101463.38;5326268;28;20094;-67
2022/06/26 14:44:12;;;;;;;4.13;2.55;;;;;;;20.98;59.14;101475.63;5318632;28;20028;-67
2022/06/26 14:46:43;;;;;;;5.68;2.83;;;;;;;20.89;59.19;101477.69;5303791;28;20032;-68
2022/06/26 14:49:15;;;;;;;6.65;2.90;;;;;;;20.90;59.39;101479.34;5303745;28;20020;-68
2022/06/26 14:51:49;;;;;;;5.88;2.63;;;;;;;20.94;60.06;101474.66;5313620;28;20030;-68
2022/06/26 14:54:20;;;;;;;3.65;2.65;;;;;;;20.88;59.19;101464.78;5325331;28;20038;-68
2022/06/26 14:56:51;;;;;;;4.72;2.63;;;;;;;20.93;59.40;101453.28;5325618;28;20140;-68
2022/06/26 14:59:23;;;;;;;4.88;2.60;;;;;;;20.88;59.58;101461.94;5325176;28;20435;-67
2022/06/26 15:01:54;;;;;;;6.30;2.20;;;;;;;20.80;58.98;101464.50;5324683;28;20032;-68
2022/06/26 15:04:26;;;;;;;5.70;2.40;;;;;;;20.82;58.65;101462.16;5311293;28;20069;-68
2022/06/26 15:06:57;;;;;;;4.65;2.30;;;;;;;20.86;58.60;101465.09;5303160;28;20024;-68
2022/06/26 15:09:28;;;;;;;4.88;2.63;;;;;;;20.87;58.70;101460.31;5304466;28;20076;-68
2022/06/26 15:11:59;;;;;;;4.13;2.30;;;;;;;20.95;59.10;101453.78;5316503;28;20475;-67
2022/06/26 15:14:31;;;;;;;3.67;2.22;;;;;;;20.89;58.53;101450.34;5325478;28;20402;-68
2022/06/26 15:17:02;;;;;;;4.38;2.22;;;;;;;20.94;58.27;101454.91;5325117;28;20108;-68
2022/06/26 15:19:33;;;;;;;6.00;2.95;;;;;;;20.95;57.85;101453.78;5323370;28;20080;-67
2022/06/26 15:22:05;;;;;;;3.60;2.35;;;;;;;21.02;58.64;101442.75;5325522;28;20020;-67
2022/06/26 15:24:36;;;;;;;4.15;3.22;;;;;;;20.87;57.00;101443.41;5324359;28;20020;-67
2022/06/26 15:27:08;;;;;;;4.68;2.67;;;;;;;20.95;57.19;101442.50;5303328;28;20027;-67
2022/06/26 15:29:39;;;;;;;3.65;2.42;;;;;;;21.05;57.60;101434.41;5303603;28;20047;-68
2022/06/26 15:32:15;;;;;;;4.30;2.65;;;;;;;21.07;55.74;101434.09;5303745;28;20374;-68
2022/06/26 15:34:47;;;;;;;5.55;4.22;;;;;;;21.06;56.07;101426.78;5303711;28;20023;-67
2022/06/26 15:37:18;;;;;;;5.78;3.03;;;;;;;21.13;57.04;101424.22;5303856;28;20387;-68
2022/06/26 15:39:49;;;;;;;4.50;2.83;;;;;;;21.22;57.44;101410.88;5303820;28;20024;-68
2022/06/26 15:42:21;;;;;;;3.35;2.53;;;;;;;21.22;58.42;101416.50;5303752;28;20024;-68
2022/06/26 15:44:52;;;;;;;4.95;2.63;;;;;;;21.20;57.14;101420.84;5304009;28;20047;-68
2022/06/26 15:47:24;;;;;;;4.88;2.70;;;;;;;21.19;55.86;101425.66;5303267;28;20027;-68
2022/06/26 15:49:55;;;;;;;4.75;2.35;;;;;;;21.27;55.96;101421.09;5303416;28;20081;-68
2022/06/26 15:52:27;;;;;;;5.03;2.70;;;;;;;21.41;55.44;101415.16;5304632;28;20051;-68
2022/06/26 15:54:58;;;;;;;3.95;2.60;;;;;;;21.60;55.22;101415.44;5303168;28;20121;-68
2022/06/26 15:57:30;;;;;;;3.90;2.00;;;;;;;21.63;54.33;101416.72;5303535;28;20129;-67
2022/06/26 16:00:03;;;;;;;5.85;2.40;;;;;;;21.65;53.60;101420.00;5316038;28;20106;-67
2022/06/26 16:02:34;;;;;;;6.03;3.53;;;;;;;21.62;52.17;101418.72;5323910;28;20042;-66
2022/06/26 16:05:06;;;;;;;4.95;2.33;;;;;;;21.64;53.59;101424.84;5325002;28;20023;-67
2022/06/26 16:07:37;;;;;;;7.72;2.40;;;;;;;21.61;52.62;101430.38;5321810;28;20023;-68
2022/06/26 16:10:09;;;;;;;5.03;2.67;;;;;;;21.68;53.09;101428.63;5305564;28;20016;-68
2022/06/26 16:12:40;;;;;;;5.32;3.22;;;;;;;21.80;53.53;101427.78;5318507;28;20359;-68
2022/06/26 16:15:11;;;;;;;3.60;2.40;;;;;;;21.83;52.84;101426.25;5323351;28;20023;-68
2022/06/26 16:17:43;;;;;;;3.88;2.17;;;;;;;21.85;51.90;101427.53;5308868;28;20046;-69
2022/06/26 16:20:14;;;;;;;4.68;2.22;;;;;;;21.85;51.21;101419.06;5324662;28;20401;-67
2022/06/26 16:28:25;;;;;;;5.03;2.28;;;;;;;21.93;49.72;101414.47;5328840;28;20032;-67
2022/06/26 16:30:56;;;;;;;3.65;2.20;;;;;;;21.76;45.30;101409.91;5327774;28;20015;-68
2022/06/26 16:33:27;;;;;;;5.05;2.13;;;;;;;21.79;45.78;101405.56;5320620;28;20027;-68
2022/06/26 16:35:59;;;;;;;7.63;2.17;;;;;;;21.79;46.32;101412.03;5320019;28;20103;-68
2022/06/26 16:38:30;;;;;;;3.45;1.73;;;;;;;21.73;46.62;101407.81;5316181;28;20508;-68
2022/06/26 16:41:02;;;;;;;4.72;2.33;;;;;;;21.78;47.63;101403.91;5328532;28;20030;-68
2022/06/26 16:43:34;;;;;;;5.70;2.38;;;;;;;21.60;46.65;101401.31;5320101;28;20122;-68
2022/06/26 16:46:05;;;;;;;3.92;1.80;;;;;;;21.64;47.09;101390.97;5328395;28;20432;-68
2022/06/26 16:48:37;;;;;;;5.38;1.95;;;;;;;21.59;47.24;101387.56;5328515;28;20020;-68
2022/06/26 16:51:09;;;;;;;4.25;2.30;;;;;;;21.66;48.25;101368.88;5316068;27;20506;-68
2022/06/26 16:53:40;;;;;;;5.30;2.85;;;;;;;21.56;48.75;101377.78;5306540;28;20024;-68
2022/06/26 16:56:11;;;;;;;5.68;2.33;;;;;;;21.46;48.02;101378.25;5306653;28;20369;-67
2022/06/26 16:58:43;;;;;;;5.95;2.97;;;;;;;21.42;47.47;101382.94;5305739;28;20040;-68
2022/06/26 17:01:14;;;;;;;5.55;3.10;;;;;;;21.27;47.33;101390.91;5307180;28;20035;-67
2022/06/26 17:03:45;;;;;;;4.45;1.90;;;;;;;21.39;46.77;101378.81;5313930;28;20020;-68
2022/06/26 17:06:17;;;;;;;5.57;2.47;;;;;;;21.38;47.57;101370.69;5327462;28;20020;-68
2022/06/26 17:08:48;;;;;;;3.92;2.17;;;;;;;21.37;48.15;101367.06;5320312;28;20382;-68
2022/06/26 17:11:19;;;;;;;7.53;2.55;;;;;;;21.38;48.69;101365.91;5327377;28;20031;-68
2022/06/26 17:13:51;;;;;;;7.22;3.40;;;;;;;21.31;49.39;101373.28;5312871;28;20107;-70
2022/06/26 17:16:22;;;;;;;2.63;2.20;;;;;;;21.30;50.65;101375.28;5309594;28;20585;-68
2022/06/26 17:18:53;;;;;;;3.78;2.22;;;;;;;21.30;49.54;101366.00;5304217;28;20024;-68
2022/06/26 17:21:25;;;;;;;5.28;2.38;;;;;;;21.32;49.76;101364.47;5323312;28;20442;-70
2022/06/26 17:23:57;;;;;;;4.18;2.42;;;;;;;21.32;49.95;101357.97;5308624;28;20066;-68
2022/06/26 17:26:28;;;;;;;4.22;2.67;;;;;;;21.21;49.48;101355.59;5320605;28;20035;-67
2022/06/26 17:29:00;;;;;;;4.88;2.40;;;;;;;21.25;49.48;101364.22;5327785;28;20031;-67
